createdAt,value
2017-08-23T03:30:21.653Z,16.20
2017-08-23T03:32:49.847Z,16.20
2017-08-23T03:35:17.490Z,16.00
2017-08-23T03:37:45.505Z,15.90
2017-08-23T03:40:13.173Z,15.90
2017-08-23T03:42:40.832Z,15.90
2017-08-23T03:45:08.508Z,15.90
2017-08-23T03:47:36.937Z,16.00
2017-08-23T03:50:04.829Z,15.90
2017-08-23T03:52:33.182Z,16.00
2017-08-23T03:55:01.333Z,16.00
2017-08-23T03:57:28.971Z,16.00
2017-08-23T03:59:56.592Z,16.00
2017-08-23T04:02:24.242Z,16.00
2017-08-23T04:04:51.919Z,16.00
2017-08-23T04:07:19.660Z,15.90
2017-08-23T04:09:47.312Z,15.90
2017-08-23T04:12:14.970Z,15.90
2017-08-23T04:14:42.625Z,15.90
2017-08-23T04:17:10.295Z,15.90
2017-08-23T04:19:37.952Z,15.90
2017-08-23T04:22:05.959Z,15.80
2017-08-23T04:24:33.611Z,15.80
2017-08-23T04:27:01.262Z,15.70
2017-08-23T04:29:28.911Z,15.60
2017-08-23T04:31:56.808Z,15.70
2017-08-23T04:34:24.467Z,15.70
2017-08-23T04:36:52.121Z,15.60
2017-08-23T04:39:19.777Z,15.60
2017-08-23T04:41:47.408Z,15.60
2017-08-23T04:44:15.081Z,15.70
2017-08-23T04:46:42.755Z,15.70
2017-08-23T04:49:10.820Z,15.80
2017-08-23T04:51:38.455Z,15.80
2017-08-23T04:54:06.094Z,15.80
2017-08-23T04:56:33.769Z,15.90
2017-08-23T04:59:01.404Z,16.00
2017-08-23T05:01:29.077Z,16.10
2017-08-23T05:03:56.734Z,16.10
2017-08-23T05:06:24.750Z,16.20
2017-08-23T05:08:53.144Z,16.20
2017-08-23T05:11:20.816Z,16.20
2017-08-23T05:13:48.470Z,16.30
2017-08-23T05:16:16.109Z,16.30
2017-08-23T05:18:43.794Z,16.40
2017-08-23T05:21:11.425Z,16.60
2017-08-23T05:23:39.093Z,16.60
2017-08-23T05:26:06.736Z,16.70
2017-08-23T05:28:34.813Z,16.80
2017-08-23T05:31:02.502Z,16.90
2017-08-23T05:33:30.162Z,17.00
2017-08-23T05:35:57.847Z,17.00
2017-08-23T05:38:25.484Z,17.10
2017-08-23T05:40:53.117Z,17.20
2017-08-23T05:43:20.745Z,17.00
2017-08-23T05:45:56.158Z,17.10
2017-08-23T05:48:24.118Z,17.20
2017-08-23T05:50:52.179Z,17.30
2017-08-23T05:53:19.817Z,17.30
2017-08-23T05:55:47.452Z,17.50
2017-08-23T05:58:15.130Z,17.90
2017-08-23T06:00:42.786Z,18.00
2017-08-23T06:03:10.444Z,18.20
2017-08-23T06:05:38.192Z,18.40
2017-08-23T06:08:05.844Z,18.60
2017-08-23T06:10:33.496Z,18.60
2017-08-23T06:13:01.198Z,18.70
2017-08-23T06:15:28.841Z,18.80
2017-08-23T06:17:56.837Z,19.00
2017-08-23T06:20:24.492Z,19.10
2017-08-23T06:22:52.134Z,19.10
2017-08-23T06:25:19.809Z,19.30
2017-08-23T06:27:47.486Z,19.50
2017-08-23T06:30:15.162Z,19.60
2017-08-23T06:32:42.811Z,19.50
2017-08-23T06:35:10.475Z,19.50
2017-08-23T06:37:38.123Z,19.60
2017-08-23T06:40:05.793Z,19.80
2017-08-23T06:42:33.498Z,19.80
2017-08-23T06:45:02.586Z,19.90
2017-08-23T06:47:30.223Z,20.10
2017-08-23T06:49:57.861Z,20.00
2017-08-23T06:52:25.510Z,20.20
2017-08-23T06:54:53.151Z,20.40
2017-08-23T06:57:20.792Z,20.60
2017-08-23T06:59:48.448Z,20.60
2017-08-23T07:02:16.125Z,20.90
2017-08-23T07:04:43.759Z,21.00
2017-08-23T07:07:11.392Z,21.20
2017-08-23T07:09:39.410Z,21.20
2017-08-23T07:12:07.052Z,21.50
2017-08-23T07:14:34.678Z,21.60
2017-08-23T07:17:02.716Z,21.50
2017-08-23T07:19:30.403Z,21.30
2017-08-23T07:21:58.053Z,21.50
2017-08-23T07:24:25.735Z,21.70
2017-08-23T07:26:53.389Z,21.80
2017-08-23T07:29:21.070Z,21.70
2017-08-23T07:31:48.706Z,21.90
2017-08-23T07:34:16.405Z,22.00
2017-08-23T07:36:44.050Z,22.10
2017-08-23T07:39:12.078Z,22.20
2017-08-23T07:41:39.723Z,22.40
2017-08-23T07:44:07.388Z,22.50
2017-08-23T07:46:35.062Z,22.70
2017-08-23T07:49:02.719Z,22.80
2017-08-23T07:51:31.154Z,23.20
2017-08-23T07:53:58.807Z,23.20
2017-08-23T07:56:26.851Z,23.40
2017-08-23T07:58:54.521Z,23.50
2017-08-23T08:01:22.194Z,23.50
2017-08-23T08:03:50.868Z,23.40
2017-08-23T08:06:18.713Z,23.70
2017-08-23T08:08:46.379Z,23.90
2017-08-23T08:11:14.012Z,24.20
2017-08-23T08:13:41.666Z,24.30
2017-08-23T08:16:09.321Z,24.40
2017-08-23T08:18:37.423Z,24.60
2017-08-23T08:21:05.073Z,24.70
2017-08-23T08:23:32.720Z,24.80
2017-08-23T08:26:00.491Z,25.00
2017-08-23T08:28:28.129Z,24.80
2017-08-23T08:30:55.788Z,25.10
2017-08-23T08:33:23.454Z,25.10
2017-08-23T08:35:51.123Z,25.30
2017-08-23T08:38:18.771Z,25.50
2017-08-23T08:40:46.433Z,25.90
2017-08-23T08:43:14.453Z,26.10
2017-08-23T08:45:42.182Z,26.40
2017-08-23T08:48:09.804Z,26.80
2017-08-23T08:50:37.819Z,27.00
2017-08-23T08:53:05.465Z,27.60
2017-08-23T08:55:33.124Z,28.10
2017-08-23T08:58:01.120Z,28.60
2017-08-23T09:00:28.773Z,29.30
2017-08-23T09:02:56.437Z,30.10
2017-08-23T09:05:24.552Z,30.70
2017-08-23T09:07:52.212Z,31.40
2017-08-23T09:10:19.873Z,32.10
2017-08-23T09:12:47.940Z,32.80
2017-08-23T09:15:15.587Z,33.40
2017-08-23T09:17:43.250Z,33.90
2017-08-23T09:20:11.340Z,34.40
2017-08-23T09:22:38.967Z,34.90
2017-08-23T09:25:06.597Z,35.90
2017-08-23T09:27:34.721Z,36.90
2017-08-23T09:30:02.370Z,37.60
2017-08-23T09:32:30.786Z,39.00
2017-08-23T09:34:58.841Z,39.00
2017-08-23T09:37:26.500Z,39.60
2017-08-23T09:39:54.131Z,40.00
2017-08-23T09:42:22.325Z,40.50
2017-08-23T09:44:50.745Z,41.60
2017-08-23T09:47:18.352Z,41.50
2017-08-23T09:49:46.437Z,42.00
2017-08-23T09:52:14.079Z,42.50
2017-08-23T09:54:42.008Z,43.00
2017-08-23T09:57:10.038Z,43.50
2017-08-23T09:59:37.714Z,43.80
2017-08-23T10:02:05.363Z,44.10
2017-08-23T10:04:33.428Z,44.00
2017-08-23T10:07:01.289Z,44.50
2017-08-23T10:09:28.937Z,44.80
2017-08-23T10:11:56.614Z,44.40
2017-08-23T10:14:24.240Z,44.70
2017-08-23T10:16:52.490Z,45.20
2017-08-23T10:19:20.143Z,45.80
2017-08-23T10:21:47.864Z,46.40
2017-08-23T10:24:16.161Z,46.90
2017-08-23T10:26:43.852Z,47.00
2017-08-23T10:29:11.633Z,47.10
2017-08-23T10:31:39.313Z,44.10
2017-08-23T10:34:07.611Z,40.20
2017-08-23T10:36:35.239Z,39.00
2017-08-23T10:39:02.890Z,40.40
2017-08-23T10:41:30.574Z,42.60
2017-08-23T10:43:58.229Z,44.70
2017-08-23T10:46:25.913Z,45.50
2017-08-23T10:48:53.546Z,45.50
2017-08-23T10:51:21.207Z,45.90
2017-08-23T10:53:48.948Z,46.60
2017-08-23T10:56:16.933Z,47.30
2017-08-23T10:58:44.589Z,48.10
2017-08-23T11:01:12.259Z,48.90
2017-08-23T11:03:39.946Z,49.20
2017-08-23T11:06:07.715Z,49.50
2017-08-23T11:08:35.391Z,49.70
2017-08-23T11:11:03.110Z,49.80
2017-08-23T11:13:31.086Z,49.70
2017-08-23T11:15:58.705Z,49.80
2017-08-23T11:18:26.335Z,49.60
2017-08-23T11:20:53.988Z,49.50
2017-08-23T11:23:21.665Z,50.00
2017-08-23T11:25:49.332Z,49.80
2017-08-23T11:28:16.988Z,50.00
2017-08-23T11:30:44.652Z,49.40
2017-08-23T11:33:12.314Z,49.30
2017-08-23T11:35:40.292Z,49.30
2017-08-23T11:38:07.947Z,49.30
2017-08-23T11:40:35.604Z,49.30
2017-08-23T11:43:03.291Z,49.80
2017-08-23T11:45:30.962Z,50.20
2017-08-23T11:47:58.645Z,50.50
2017-08-23T11:50:26.288Z,50.60
2017-08-23T11:52:53.981Z,50.70
2017-08-23T11:55:21.673Z,50.50
2017-08-23T11:57:49.328Z,50.30
2017-08-23T12:00:16.997Z,50.00
2017-08-23T12:02:44.682Z,49.60
2017-08-23T12:05:12.358Z,48.60
2017-08-23T12:07:40.405Z,47.60
2017-08-23T12:10:08.983Z,45.90
2017-08-23T12:12:36.628Z,44.10
2017-08-23T12:15:04.758Z,42.60
2017-08-23T12:17:34.357Z,41.60
2017-08-23T12:20:03.079Z,40.50
2017-08-23T12:22:30.742Z,39.20
2017-08-23T12:24:58.376Z,38.40
2017-08-23T12:27:26.044Z,37.80
2017-08-23T12:29:53.703Z,37.60
2017-08-23T12:32:21.374Z,37.40
2017-08-23T12:34:49.023Z,36.70
2017-08-23T12:37:17.072Z,36.20
2017-08-23T12:39:44.722Z,35.70
2017-08-23T12:42:12.378Z,35.60
2017-08-23T12:44:40.122Z,35.30
2017-08-23T12:47:07.781Z,34.70
2017-08-23T12:49:35.441Z,34.60
2017-08-23T12:52:03.351Z,34.40
2017-08-23T12:54:31.030Z,34.50
2017-08-23T12:56:58.665Z,34.20
2017-08-23T12:59:26.674Z,33.50
2017-08-23T13:01:54.325Z,33.20
2017-08-23T13:04:22.816Z,32.30
2017-08-23T13:06:50.603Z,32.10
2017-08-23T13:09:18.274Z,32.40
2017-08-23T13:11:45.959Z,32.60
2017-08-23T13:14:13.658Z,32.90
2017-08-23T13:16:41.317Z,32.60
2017-08-23T13:19:09.106Z,32.50
2017-08-23T13:21:36.981Z,32.60
2017-08-23T13:24:04.696Z,32.40
2017-08-23T13:26:32.806Z,32.10
2017-08-23T13:29:00.445Z,31.90
2017-08-23T13:31:29.158Z,31.80
2017-08-23T13:33:56.813Z,31.70
2017-08-23T13:36:24.486Z,31.40
2017-08-23T13:38:53.081Z,31.40
2017-08-23T13:41:20.758Z,31.60
2017-08-23T13:43:48.423Z,31.60
2017-08-23T13:46:16.540Z,31.50
2017-08-23T13:48:44.206Z,31.40
2017-08-23T13:51:11.985Z,31.40
2017-08-23T13:53:40.036Z,31.40
2017-08-23T13:56:07.689Z,31.10
2017-08-23T13:58:35.324Z,30.90
2017-08-23T14:01:03.403Z,30.60
2017-08-23T14:03:31.063Z,30.60
2017-08-23T14:05:58.803Z,30.60
2017-08-23T14:08:26.802Z,30.60
2017-08-23T14:10:54.454Z,30.50
2017-08-23T14:13:22.100Z,29.90
2017-08-23T14:15:50.124Z,29.90
2017-08-23T14:18:17.772Z,29.70
2017-08-23T14:20:45.413Z,29.80
2017-08-23T14:23:13.422Z,29.80
2017-08-23T14:25:41.078Z,29.80
2017-08-23T14:28:08.754Z,29.80
2017-08-23T14:30:36.847Z,29.60
2017-08-23T14:33:04.516Z,29.50
2017-08-23T14:35:32.197Z,29.50
2017-08-23T14:38:00.441Z,29.30
2017-08-23T14:40:28.449Z,29.30
2017-08-23T14:42:56.365Z,29.40
2017-08-23T14:45:24.430Z,29.40
2017-08-23T14:47:52.132Z,29.40
2017-08-23T14:50:19.895Z,29.40
2017-08-23T14:52:47.945Z,29.20
2017-08-23T14:55:16.388Z,29.10
2017-08-23T14:57:44.135Z,28.70
2017-08-23T15:00:12.742Z,28.50
2017-08-23T15:02:40.390Z,28.80
2017-08-23T15:05:08.053Z,28.90
2017-08-23T15:07:36.552Z,28.70
2017-08-23T15:10:04.315Z,28.80
2017-08-23T15:12:32.040Z,28.80
2017-08-23T15:15:00.069Z,28.80
2017-08-23T15:17:27.717Z,28.70
2017-08-23T15:19:55.364Z,28.50
2017-08-23T15:22:23.443Z,28.50
2017-08-23T15:24:51.588Z,28.70
2017-08-23T15:27:19.338Z,28.70
2017-08-23T15:29:47.533Z,28.80
2017-08-23T15:32:15.159Z,28.80
2017-08-23T15:34:42.816Z,28.60
2017-08-23T15:37:10.864Z,28.50
2017-08-23T15:39:38.524Z,28.50
2017-08-23T15:42:06.185Z,28.50
2017-08-23T15:44:34.312Z,28.60
2017-08-23T15:47:01.948Z,28.40
2017-08-23T15:49:29.575Z,28.30
2017-08-23T15:51:57.616Z,27.80
2017-08-23T15:54:25.277Z,27.50
2017-08-23T15:56:52.941Z,27.30
2017-08-23T15:59:21.846Z,27.80
2017-08-23T16:01:49.530Z,27.80
2017-08-23T16:04:17.184Z,27.90
2017-08-23T16:06:45.250Z,28.00
2017-08-23T16:09:12.909Z,28.00
2017-08-23T16:11:40.543Z,28.10
2017-08-23T16:14:08.540Z,28.10
2017-08-23T16:16:36.216Z,28.20
2017-08-23T16:19:03.859Z,28.10
2017-08-23T16:21:31.931Z,28.10
2017-08-23T16:23:59.573Z,28.00
2017-08-23T16:26:28.024Z,28.00
2017-08-23T16:28:56.147Z,28.00
2017-08-23T16:31:23.845Z,27.90
2017-08-23T16:33:51.505Z,27.80
2017-08-23T16:36:19.499Z,27.40
2017-08-23T16:38:47.165Z,27.40
2017-08-23T16:41:14.875Z,27.30
2017-08-23T16:43:42.566Z,27.30
2017-08-23T16:46:10.316Z,27.40
2017-08-23T16:48:38.363Z,27.50
2017-08-23T16:51:06.093Z,27.30
2017-08-23T16:53:34.194Z,27.30
2017-08-23T16:56:01.852Z,27.30
2017-08-23T16:58:29.485Z,27.30
2017-08-23T17:00:57.583Z,27.60
2017-08-23T17:03:25.242Z,27.60
2017-08-23T17:05:52.892Z,27.60
2017-08-23T17:08:20.989Z,27.40
2017-08-23T17:10:48.630Z,27.30
2017-08-23T17:13:16.271Z,27.30
2017-08-23T17:15:44.368Z,27.30
2017-08-23T17:18:12.823Z,27.20
2017-08-23T17:20:40.505Z,27.20
2017-08-23T17:23:08.540Z,27.10
2017-08-23T17:25:36.206Z,27.10
2017-08-23T17:28:03.871Z,27.10
2017-08-23T17:30:32.155Z,27.10
2017-08-23T17:32:59.788Z,27.00
2017-08-23T17:35:27.535Z,26.90
2017-08-23T17:37:56.131Z,26.80
2017-08-23T17:40:23.813Z,26.70
2017-08-23T17:42:51.495Z,26.60
2017-08-23T17:45:19.171Z,26.50
2017-08-23T17:47:46.824Z,26.50
2017-08-23T17:50:14.583Z,26.40
2017-08-23T17:52:42.338Z,26.30
2017-08-23T17:55:10.324Z,26.20
2017-08-23T17:57:37.964Z,26.10
2017-08-23T18:00:05.709Z,26.00
2017-08-23T18:02:33.669Z,25.90
2017-08-23T18:05:01.352Z,25.80
2017-08-23T18:07:29.196Z,25.60
2017-08-23T18:09:56.883Z,25.60
2017-08-23T18:12:25.380Z,25.50
2017-08-23T18:14:53.104Z,25.30
2017-08-23T18:17:20.849Z,25.30
2017-08-23T18:19:48.534Z,25.30
2017-08-23T18:22:16.227Z,25.20
2017-08-23T18:24:43.954Z,25.00
2017-08-23T18:27:12.272Z,24.90
2017-08-23T18:29:40.007Z,24.70
2017-08-23T18:32:09.172Z,24.70
2017-08-23T18:34:37.259Z,24.60
2017-08-23T18:37:05.014Z,24.60
2017-08-23T18:39:32.793Z,24.70
2017-08-23T18:42:00.558Z,24.50
2017-08-23T18:44:28.238Z,24.30
2017-08-23T18:46:55.906Z,24.30
2017-08-23T18:49:24.353Z,24.30
2017-08-23T18:51:52.957Z,24.30
2017-08-23T18:54:20.705Z,24.30
2017-08-23T18:56:48.401Z,24.30
2017-08-23T18:59:16.520Z,24.40
2017-08-23T19:01:44.262Z,24.40
2017-08-23T19:04:11.985Z,24.30
2017-08-23T19:06:39.685Z,24.10
2017-08-23T19:09:07.366Z,23.90
2017-08-23T19:11:35.017Z,23.80
2017-08-23T19:14:03.106Z,23.60
2017-08-23T19:16:30.768Z,23.40
2017-08-23T19:18:58.539Z,23.40
2017-08-23T19:21:26.226Z,23.40
2017-08-23T19:23:53.986Z,23.50
2017-08-23T19:26:21.687Z,23.70
2017-08-23T19:28:49.369Z,23.80
2017-08-23T19:31:17.126Z,23.80
2017-08-23T19:33:44.772Z,23.80
2017-08-23T19:36:12.441Z,23.50
2017-08-23T19:38:40.109Z,23.40
2017-08-23T19:41:07.888Z,23.30
2017-08-23T19:43:36.693Z,23.10
2017-08-23T19:46:04.706Z,22.90
2017-08-23T19:48:32.421Z,22.70
2017-08-23T19:51:00.271Z,22.70
2017-08-23T19:53:30.127Z,22.80
2017-08-23T19:55:57.823Z,22.80
2017-08-23T19:58:25.497Z,22.80
2017-08-23T20:00:54.429Z,22.80
2017-08-23T20:03:22.111Z,22.70
2017-08-23T20:05:50.211Z,22.80
2017-08-23T20:08:18.667Z,22.90
2017-08-23T20:10:46.355Z,23.10
2017-08-23T20:13:14.348Z,23.10
2017-08-23T20:15:42.076Z,23.10
2017-08-23T20:18:10.748Z,23.10
2017-08-23T20:20:38.963Z,23.10
2017-08-23T20:23:06.623Z,23.10
2017-08-23T20:25:34.294Z,23.00
2017-08-23T20:28:02.306Z,22.80
2017-08-23T20:30:30.694Z,22.80
2017-08-23T20:32:58.325Z,22.80
2017-08-23T20:35:26.386Z,22.80
2017-08-23T20:37:54.224Z,22.60
2017-08-23T20:40:21.863Z,22.40
2017-08-23T20:42:49.543Z,22.50
2017-08-23T20:45:17.213Z,22.60
2017-08-23T20:47:44.919Z,22.70
2017-08-23T20:50:13.169Z,22.70
2017-08-23T20:52:40.934Z,22.70
2017-08-23T20:55:09.035Z,22.60
2017-08-23T20:57:36.712Z,22.50
2017-08-23T21:00:04.378Z,22.50
2017-08-23T21:02:32.062Z,22.50
2017-08-23T21:04:59.706Z,22.50
2017-08-23T21:07:27.418Z,22.50
2017-08-23T21:09:55.090Z,22.60
2017-08-23T21:12:23.124Z,22.50
2017-08-23T21:14:50.793Z,22.50
2017-08-23T21:17:18.438Z,22.40
2017-08-23T21:19:46.225Z,22.40
2017-08-23T21:22:13.886Z,22.50
2017-08-23T21:24:41.968Z,22.50
2017-08-23T21:27:09.600Z,22.40
2017-08-23T21:29:37.265Z,22.30
2017-08-23T21:32:05.266Z,22.00
2017-08-23T21:34:32.917Z,21.90
2017-08-23T21:37:00.892Z,21.80
2017-08-23T21:39:28.990Z,21.90
2017-08-23T21:41:56.625Z,22.00
2017-08-23T21:44:24.275Z,22.00
2017-08-23T21:46:52.377Z,22.00
2017-08-23T21:49:20.022Z,21.90
2017-08-23T21:51:47.675Z,21.90
2017-08-23T21:54:15.788Z,21.80
2017-08-23T21:56:43.449Z,21.80
2017-08-23T21:59:11.113Z,21.80
2017-08-23T22:01:39.165Z,21.80
2017-08-23T22:04:06.830Z,21.80
2017-08-23T22:06:34.506Z,21.80
2017-08-23T22:09:02.542Z,21.80
2017-08-23T22:11:30.175Z,21.70
2017-08-23T22:13:57.899Z,21.70
2017-08-23T22:16:25.900Z,21.70
2017-08-23T22:18:53.533Z,21.80
2017-08-23T22:21:21.197Z,21.80
2017-08-23T22:23:49.296Z,21.80
2017-08-23T22:26:16.965Z,21.80
2017-08-23T22:28:44.633Z,21.70
